Juneau, AK (99801)

5:41 PM AKST on March 04, 2015 (GMT -0900)
Dimond Park | Change Station
CLOSE
Current Station
Personal Weather Station
Location: Juneau, AK
Elevation: 26 ft
Nearby Weather Stations

Elev 26 ft 58.38 °N, 134.59 °W | Updated 3 minutes ago

Light Rain
Light Rain
38.3 °F
Feels Like 38 °F
N
2.7
Wind Variable Wind from SW

Today
High -- | Low -- °F
--% Chance of Precip.
Yesterday
High -- | Low -- °F
Precip. -- in
6:45 AM 5:35 PM
Full, 100% visible
Pressure 30.04 in
Visibility 10.0 miles
Clouds Few 900 ft
Scattered Clouds 3700 ft
Overcast 4500 ft
Windchill 38 °F
Dew Point 34 °F
Humidity 86%
Rainfall 0.20 in
Snow Depth Not available.
UV 0 out of 12
Pollen Not available.
Air Quality Not available.
Flu Activity Not available.
METAR PAJN 050153Z 11013KT 10SM -RA FEW009 SCT037 OVC045 03/02 A3003 RMK AO2 SLP170 P0000 T00330022

More Conditions Fewer Conditions

Pressure 30.04 in
Visibility 10.0 miles
Clouds Few 900 ft
Scattered Clouds 3700 ft
Overcast 4500 ft
Windchill 38 °F
Dew Point 34 °F
Humidity 86%
Rainfall 0.20 in
Snow Depth Not available.
UV 0 out of 12
Pollen Not available.
Air Quality Not available.
Flu Activity Not available.
METAR PAJN 050153Z 11013KT 10SM -RA FEW009 SCT037 OVC045 03/02 A3003 RMK AO2 SLP170 P0000 T00330022

More Conditions Fewer Conditions

10-Day Weather Forecast

Almanac

Astronomy

Mar. 04, 2015 Rise Set
Actual Time
Civil Twilight
Nautical Twilight
Astronomical Twilight
Moon
Length of Visible Light
Length of Day
Tomorrow will be .
, % of the Moon is Illuminated

Today's Extremes

State Highs State Lows

Community

WunderPhotos

Upload Photos

1,802,634 photos uploaded!

WunderBlogs® & News

Nearby

Air Quality

  Air Quality AQ Index Pollutant
Not available.

Snow Depth

Station Depth Elevation

Earthquake Activity

City Distance Mag. Time & Date
Minimum magnitude displayed is 2.5.

Coastal Water Temperatures

Place Temperature

Nearby Weather Stations